Blois-Le Breuil Airport


Codes: LFOQ/XBQ
Name: Blois-Le Breuil Airport
City: Blois/Le Breuil
Country: France
Elevation: 398 ft.

Photos at Blois-Le Breuil Airport


   Photos courtesy of SpottingLog. You can add your own sightings and photos by signing up for a free trial today.



No photos found.

Weather at Blois-Le Breuil Airport


Time (UTC)DescriptionTempratureWindCloud coverageVisibilityPressureHumidity
18-Apr-2024 00:00Overcast Clouds4°C7 mph, NW89%10000m1017hPa91%
18-Apr-2024 03:00Light Rain4°C9 mph, NW96%10000m1017hPa94%
18-Apr-2024 06:00Light Rain3°C9 mph, N77%10000m1019hPa93%
18-Apr-2024 09:00Few Clouds8°C16 mph, N12%10000m1021hPa71%
18-Apr-2024 12:00Scattered Clouds10°C13 mph, NE28%10000m1022hPa59%
18-Apr-2024 15:00Few Clouds12°C9 mph, NE18%10000m1022hPa49%
18-Apr-2024 18:00Few Clouds9°C7 mph, N12%10000m1024hPa70%
18-Apr-2024 21:00Clear Sky5°C4 mph, E3%10000m1025hPa80%
19-Apr-2024 00:00Few Clouds3°C7 mph, SW11%10000m1025hPa89%
19-Apr-2024 03:00Broken Clouds3°C7 mph, SW55%10000m1024hPa91%
19-Apr-2024 06:00Broken Clouds4°C7 mph, W65%10000m1023hPa91%
19-Apr-2024 09:00Broken Clouds10°C13 mph, W69%10000m1022hPa57%
19-Apr-2024 12:00Scattered Clouds13°C16 mph, W41%10000m1021hPa62%
19-Apr-2024 15:00Overcast Clouds11°C13 mph, W92%10000m1020hPa81%
19-Apr-2024 18:00Light Rain10°C13 mph, W96%10000m1020hPa86%
19-Apr-2024 21:00Broken Clouds6°C7 mph, NW51%10000m1022hPa94%
20-Apr-2024 00:00Scattered Clouds5°C9 mph, N30%10000m1024hPa95%
20-Apr-2024 03:00Clear Sky2°C9 mph, N1%10000m1025hPa93%
20-Apr-2024 06:00Clear Sky2°C9 mph, N2%10000m1026hPa89%
20-Apr-2024 09:00Clear Sky8°C11 mph, N6%10000m1027hPa65%
20-Apr-2024 12:00Few Clouds11°C11 mph, NE18%10000m1027hPa54%
20-Apr-2024 15:00Scattered Clouds12°C13 mph, N37%10000m1026hPa52%
20-Apr-2024 18:00Scattered Clouds8°C11 mph, N48%10000m1027hPa71%
20-Apr-2024 21:00Clear Sky4°C9 mph, N9%10000m1029hPa85%
21-Apr-2024 00:00Clear Sky2°C9 mph, N8%10000m1029hPa89%
21-Apr-2024 03:00Clear Sky1°C9 mph, N5%10000m1028hPa91%
21-Apr-2024 06:00Clear Sky2°C9 mph, N7%10000m1028hPa87%
21-Apr-2024 09:00Broken Clouds8°C11 mph, NE53%10000m1027hPa65%
21-Apr-2024 12:00Broken Clouds9°C16 mph, NE62%10000m1026hPa61%
21-Apr-2024 15:00Overcast Clouds8°C11 mph, N98%10000m1025hPa68%
21-Apr-2024 18:00Light Rain7°C11 mph, N92%10000m1024hPa76%
21-Apr-2024 21:00Scattered Clouds4°C11 mph, N43%10000m1025hPa85%
22-Apr-2024 00:00Scattered Clouds2°C11 mph, N25%10000m1025hPa91%
22-Apr-2024 03:00Clear Sky2°C11 mph, N7%10000m1024hPa94%
22-Apr-2024 06:00Clear Sky2°C13 mph, N6%10000m1025hPa87%
22-Apr-2024 09:00Clear Sky8°C16 mph, NE6%10000m1024hPa58%
22-Apr-2024 12:00Scattered Clouds10°C16 mph, NE34%10000m1023hPa48%
22-Apr-2024 15:00Light Rain9°C18 mph, NE98%10000m1022hPa59%
22-Apr-2024 18:00Light Rain6°C13 mph, NE72%10000m1021hPa67%
22-Apr-2024 21:00Scattered Clouds3°C11 mph, N31%10000m1022hPa81%